sensor_id;sensor_type;location;lat;lon;timestamp;P1;durP1;ratioP1;P2;durP2;ratioP2
72406;SDS011;60396;47.550;18.828;2022-12-18T00:01:43;27.98;;;11.45;;
72406;SDS011;60396;47.550;18.828;2022-12-18T00:04:15;34.57;;;12.33;;
72406;SDS011;60396;47.550;18.828;2022-12-18T00:06:49;35.78;;;13.68;;
72406;SDS011;60396;47.550;18.828;2022-12-18T00:09:16;31.40;;;13.00;;
72406;SDS011;60396;47.550;18.828;2022-12-18T00:11:44;37.58;;;13.75;;
72406;SDS011;60396;47.550;18.828;2022-12-18T00:14:12;44.30;;;16.30;;
72406;SDS011;60396;47.550;18.828;2022-12-18T00:16:42;45.33;;;14.80;;
72406;SDS011;60396;47.550;18.828;2022-12-18T00:19:11;38.15;;;13.88;;
72406;SDS011;60396;47.550;18.828;2022-12-18T00:21:40;40.17;;;14.10;;
72406;SDS011;60396;47.550;18.828;2022-12-18T00:24:09;39.58;;;13.13;;
72406;SDS011;60396;47.550;18.828;2022-12-18T00:26:38;36.95;;;14.68;;
72406;SDS011;60396;47.550;18.828;2022-12-18T00:29:07;43.23;;;15.93;;
72406;SDS011;60396;47.550;18.828;2022-12-18T00:31:37;40.28;;;14.82;;
72406;SDS011;60396;47.550;18.828;2022-12-18T00:34:05;42.30;;;16.40;;
72406;SDS011;60396;47.550;18.828;2022-12-18T00:36:33;37.15;;;13.70;;
72406;SDS011;60396;47.550;18.828;2022-12-18T00:39:02;43.53;;;14.50;;
72406;SDS011;60396;47.550;18.828;2022-12-18T00:41:31;38.33;;;14.77;;
72406;SDS011;60396;47.550;18.828;2022-12-18T00:44:18;38.47;;;14.90;;
72406;SDS011;60396;47.550;18.828;2022-12-18T00:46:46;35.50;;;14.40;;
72406;SDS011;60396;47.550;18.828;2022-12-18T00:49:18;37.35;;;14.20;;
72406;SDS011;60396;47.550;18.828;2022-12-18T00:51:46;35.05;;;14.23;;
72406;SDS011;60396;47.550;18.828;2022-12-18T00:54:14;38.03;;;14.80;;
72406;SDS011;60396;47.550;18.828;2022-12-18T00:56:42;40.03;;;15.38;;
72406;SDS011;60396;47.550;18.828;2022-12-18T00:59:16;38.55;;;14.60;;
72406;SDS011;60396;47.550;18.828;2022-12-18T01:01:45;42.20;;;16.00;;
72406;SDS011;60396;47.550;18.828;2022-12-18T01:04:13;41.47;;;14.82;;
72406;SDS011;60396;47.550;18.828;2022-12-18T01:06:44;43.23;;;15.23;;
72406;SDS011;60396;47.550;18.828;2022-12-18T01:09:12;42.17;;;14.95;;
72406;SDS011;60396;47.550;18.828;2022-12-18T01:11:39;41.30;;;15.95;;
72406;SDS011;60396;47.550;18.828;2022-12-18T01:14:07;43.47;;;14.98;;
72406;SDS011;60396;47.550;18.828;2022-12-18T01:16:37;38.20;;;14.52;;
72406;SDS011;60396;47.550;18.828;2022-12-18T01:19:04;36.93;;;14.73;;
72406;SDS011;60396;47.550;18.828;2022-12-18T01:21:33;38.28;;;14.55;;
72406;SDS011;60396;47.550;18.828;2022-12-18T01:24:03;34.97;;;12.68;;
72406;SDS011;60396;47.550;18.828;2022-12-18T01:26:31;35.10;;;14.02;;
72406;SDS011;60396;47.550;18.828;2022-12-18T01:28:59;35.72;;;13.32;;
72406;SDS011;60396;47.550;18.828;2022-12-18T01:31:28;37.20;;;13.97;;
72406;SDS011;60396;47.550;18.828;2022-12-18T01:34:00;35.97;;;14.98;;
72406;SDS011;60396;47.550;18.828;2022-12-18T01:36:29;37.75;;;14.13;;
72406;SDS011;60396;47.550;18.828;2022-12-18T01:39:02;34.22;;;12.35;;
72406;SDS011;60396;47.550;18.828;2022-12-18T01:41:32;38.35;;;13.62;;
72406;SDS011;60396;47.550;18.828;2022-12-18T01:50:02;36.67;;;13.80;;
72406;SDS011;60396;47.550;18.828;2022-12-18T01:52:36;35.92;;;13.20;;
72406;SDS011;60396;47.550;18.828;2022-12-18T01:55:04;35.75;;;13.57;;
72406;SDS011;60396;47.550;18.828;2022-12-18T01:57:32;40.90;;;14.57;;
72406;SDS011;60396;47.550;18.828;2022-12-18T02:00:03;35.95;;;13.73;;
72406;SDS011;60396;47.550;18.828;2022-12-18T02:02:39;37.65;;;14.48;;
72406;SDS011;60396;47.550;18.828;2022-12-18T02:05:09;39.25;;;14.45;;
72406;SDS011;60396;47.550;18.828;2022-12-18T02:10:24;32.60;;;14.07;;
72406;SDS011;60396;47.550;18.828;2022-12-18T02:12:56;37.33;;;14.25;;
72406;SDS011;60396;47.550;18.828;2022-12-18T02:15:32;30.65;;;13.60;;
72406;SDS011;60396;47.550;18.828;2022-12-18T02:18:20;35.65;;;14.27;;
72406;SDS011;60396;47.550;18.828;2022-12-18T02:21:04;37.22;;;13.02;;
72406;SDS011;60396;47.550;18.828;2022-12-18T02:29:07;35.50;;;14.55;;
72406;SDS011;60396;47.550;18.828;2022-12-18T02:31:42;40.45;;;14.23;;
72406;SDS011;60396;47.550;18.828;2022-12-18T02:34:13;38.90;;;14.60;;
72406;SDS011;60396;47.550;18.828;2022-12-18T02:36:42;35.90;;;14.23;;
72406;SDS011;60396;47.550;18.828;2022-12-18T02:39:11;39.15;;;14.32;;
72406;SDS011;60396;47.550;18.828;2022-12-18T02:41:41;35.58;;;14.10;;
72406;SDS011;60396;47.550;18.828;2022-12-18T02:44:10;37.05;;;13.93;;
72406;SDS011;60396;47.550;18.828;2022-12-18T02:46:41;42.90;;;14.73;;
72406;SDS011;60396;47.550;18.828;2022-12-18T03:00:36;36.15;;;12.60;;
72406;SDS011;60396;47.550;18.828;2022-12-18T03:05:41;33.38;;;13.52;;
72406;SDS011;60396;47.550;18.828;2022-12-18T03:08:24;42.75;;;14.90;;
72406;SDS011;60396;47.550;18.828;2022-12-18T03:11:06;39.63;;;14.52;;
72406;SDS011;60396;47.550;18.828;2022-12-18T03:13:43;39.25;;;13.85;;
72406;SDS011;60396;47.550;18.828;2022-12-18T03:16:15;39.03;;;14.73;;
72406;SDS011;60396;47.550;18.828;2022-12-18T03:21:54;35.85;;;13.93;;
72406;SDS011;60396;47.550;18.828;2022-12-18T03:24:24;36.38;;;13.38;;
72406;SDS011;60396;47.550;18.828;2022-12-18T03:26:55;38.50;;;14.30;;
72406;SDS011;60396;47.550;18.828;2022-12-18T03:32:02;40.80;;;13.82;;
72406;SDS011;60396;47.550;18.828;2022-12-18T03:34:33;30.33;;;11.57;;
72406;SDS011;60396;47.550;18.828;2022-12-18T03:37:03;31.62;;;12.23;;
72406;SDS011;60396;47.550;18.828;2022-12-18T03:39:31;31.35;;;12.57;;
72406;SDS011;60396;47.550;18.828;2022-12-18T03:42:07;28.30;;;11.83;;
72406;SDS011;60396;47.550;18.828;2022-12-18T03:44:40;32.92;;;11.30;;
72406;SDS011;60396;47.550;18.828;2022-12-18T03:50:13;29.20;;;10.68;;
72406;SDS011;60396;47.550;18.828;2022-12-18T03:52:55;34.50;;;11.57;;
72406;SDS011;60396;47.550;18.828;2022-12-18T03:55:27;26.53;;;10.63;;
72406;SDS011;60396;47.550;18.828;2022-12-18T03:57:58;29.48;;;9.90;;
72406;SDS011;60396;47.550;18.828;2022-12-18T04:00:29;31.42;;;10.93;;
72406;SDS011;60396;47.550;18.828;2022-12-18T04:02:59;27.87;;;9.98;;
72406;SDS011;60396;47.550;18.828;2022-12-18T04:05:28;29.08;;;10.50;;
72406;SDS011;60396;47.550;18.828;2022-12-18T04:07:57;28.83;;;9.70;;
72406;SDS011;60396;47.550;18.828;2022-12-18T04:10:27;29.10;;;9.80;;
72406;SDS011;60396;47.550;18.828;2022-12-18T04:12:57;28.85;;;9.75;;
72406;SDS011;60396;47.550;18.828;2022-12-18T04:15:24;27.17;;;9.40;;
72406;SDS011;60396;47.550;18.828;2022-12-18T04:17:52;28.67;;;9.82;;
72406;SDS011;60396;47.550;18.828;2022-12-18T04:20:20;27.10;;;9.23;;
72406;SDS011;60396;47.550;18.828;2022-12-18T04:22:48;25.33;;;10.07;;
72406;SDS011;60396;47.550;18.828;2022-12-18T04:25:17;23.60;;;8.52;;
72406;SDS011;60396;47.550;18.828;2022-12-18T04:27:47;22.85;;;8.18;;
72406;SDS011;60396;47.550;18.828;2022-12-18T04:30:14;21.02;;;8.13;;
72406;SDS011;60396;47.550;18.828;2022-12-18T04:32:42;23.07;;;7.87;;
72406;SDS011;60396;47.550;18.828;2022-12-18T04:35:19;23.12;;;8.38;;
72406;SDS011;60396;47.550;18.828;2022-12-18T04:37:46;23.02;;;7.37;;
72406;SDS011;60396;47.550;18.828;2022-12-18T04:40:14;23.25;;;7.87;;
72406;SDS011;60396;47.550;18.828;2022-12-18T04:42:42;25.55;;;7.07;;
72406;SDS011;60396;47.550;18.828;2022-12-18T04:45:10;20.13;;;7.50;;
72406;SDS011;60396;47.550;18.828;2022-12-18T04:47:37;22.27;;;7.60;;
72406;SDS011;60396;47.550;18.828;2022-12-18T04:50:05;21.80;;;6.93;;
72406;SDS011;60396;47.550;18.828;2022-12-18T04:52:33;21.75;;;7.40;;
72406;SDS011;60396;47.550;18.828;2022-12-18T04:55:01;22.85;;;7.62;;
72406;SDS011;60396;47.550;18.828;2022-12-18T04:57:28;22.07;;;6.33;;
72406;SDS011;60396;47.550;18.828;2022-12-18T04:59:56;20.08;;;7.05;;
72406;SDS011;60396;47.550;18.828;2022-12-18T05:02:23;21.90;;;7.10;;
72406;SDS011;60396;47.550;18.828;2022-12-18T05:04:51;24.80;;;7.37;;
72406;SDS011;60396;47.550;18.828;2022-12-18T05:07:19;19.30;;;6.75;;
72406;SDS011;60396;47.550;18.828;2022-12-18T05:09:46;20.97;;;7.73;;
72406;SDS011;60396;47.550;18.828;2022-12-18T05:12:14;24.77;;;7.85;;
72406;SDS011;60396;47.550;18.828;2022-12-18T05:14:41;24.50;;;7.45;;
72406;SDS011;60396;47.550;18.828;2022-12-18T05:17:09;19.95;;;6.65;;
72406;SDS011;60396;47.550;18.828;2022-12-18T05:19:36;19.60;;;7.37;;
72406;SDS011;60396;47.550;18.828;2022-12-18T05:22:04;18.50;;;6.77;;
72406;SDS011;60396;47.550;18.828;2022-12-18T05:24:31;20.05;;;6.75;;
72406;SDS011;60396;47.550;18.828;2022-12-18T05:26:59;20.17;;;6.32;;
72406;SDS011;60396;47.550;18.828;2022-12-18T05:29:27;20.67;;;6.68;;
72406;SDS011;60396;47.550;18.828;2022-12-18T05:31:54;19.92;;;5.50;;
72406;SDS011;60396;47.550;18.828;2022-12-18T05:34:22;14.43;;;5.43;;
72406;SDS011;60396;47.550;18.828;2022-12-18T05:36:50;17.90;;;5.90;;
72406;SDS011;60396;47.550;18.828;2022-12-18T05:39:17;17.40;;;5.95;;
72406;SDS011;60396;47.550;18.828;2022-12-18T05:41:45;17.60;;;5.93;;
72406;SDS011;60396;47.550;18.828;2022-12-18T05:44:13;17.98;;;6.32;;
72406;SDS011;60396;47.550;18.828;2022-12-18T05:46:40;16.43;;;5.53;;
72406;SDS011;60396;47.550;18.828;2022-12-18T05:49:08;19.73;;;5.90;;
72406;SDS011;60396;47.550;18.828;2022-12-18T05:51:36;19.90;;;6.10;;
72406;SDS011;60396;47.550;18.828;2022-12-18T05:54:05;16.60;;;6.15;;
72406;SDS011;60396;47.550;18.828;2022-12-18T05:56:32;14.13;;;5.43;;
72406;SDS011;60396;47.550;18.828;2022-12-18T05:59:00;15.30;;;5.10;;
72406;SDS011;60396;47.550;18.828;2022-12-18T06:01:28;19.37;;;5.43;;
72406;SDS011;60396;47.550;18.828;2022-12-18T06:03:55;16.80;;;5.32;;
72406;SDS011;60396;47.550;18.828;2022-12-18T06:06:24;14.73;;;5.47;;
72406;SDS011;60396;47.550;18.828;2022-12-18T06:08:53;15.50;;;4.72;;
72406;SDS011;60396;47.550;18.828;2022-12-18T06:11:25;14.53;;;5.20;;
72406;SDS011;60396;47.550;18.828;2022-12-18T06:13:53;21.58;;;6.20;;
72406;SDS011;60396;47.550;18.828;2022-12-18T06:16:26;16.42;;;5.15;;
72406;SDS011;60396;47.550;18.828;2022-12-18T06:18:57;17.73;;;5.97;;
72406;SDS011;60396;47.550;18.828;2022-12-18T06:21:29;17.90;;;6.28;;
72406;SDS011;60396;47.550;18.828;2022-12-18T06:23:58;18.80;;;6.17;;
72406;SDS011;60396;47.550;18.828;2022-12-18T06:26:25;21.15;;;7.32;;
72406;SDS011;60396;47.550;18.828;2022-12-18T06:28:55;19.98;;;6.55;;
72406;SDS011;60396;47.550;18.828;2022-12-18T06:31:23;19.50;;;6.12;;
72406;SDS011;60396;47.550;18.828;2022-12-18T06:33:51;21.10;;;6.43;;
72406;SDS011;60396;47.550;18.828;2022-12-18T06:36:19;23.10;;;6.63;;
72406;SDS011;60396;47.550;18.828;2022-12-18T06:38:47;20.83;;;7.20;;
72406;SDS011;60396;47.550;18.828;2022-12-18T06:41:16;18.10;;;5.87;;
72406;SDS011;60396;47.550;18.828;2022-12-18T06:43:45;19.17;;;6.68;;
72406;SDS011;60396;47.550;18.828;2022-12-18T06:46:13;20.52;;;6.87;;
72406;SDS011;60396;47.550;18.828;2022-12-18T06:48:41;18.63;;;6.80;;
72406;SDS011;60396;47.550;18.828;2022-12-18T06:51:10;18.05;;;6.30;;
72406;SDS011;60396;47.550;18.828;2022-12-18T06:53:37;20.55;;;6.05;;
72406;SDS011;60396;47.550;18.828;2022-12-18T06:56:06;19.67;;;6.07;;
72406;SDS011;60396;47.550;18.828;2022-12-18T06:58:37;20.58;;;6.28;;
72406;SDS011;60396;47.550;18.828;2022-12-18T07:01:06;19.03;;;5.77;;
72406;SDS011;60396;47.550;18.828;2022-12-18T07:03:36;18.73;;;5.53;;
72406;SDS011;60396;47.550;18.828;2022-12-18T07:06:05;14.57;;;5.28;;
72406;SDS011;60396;47.550;18.828;2022-12-18T07:08:33;18.85;;;5.55;;
72406;SDS011;60396;47.550;18.828;2022-12-18T07:11:03;18.02;;;5.72;;
72406;SDS011;60396;47.550;18.828;2022-12-18T07:13:31;20.47;;;6.37;;
72406;SDS011;60396;47.550;18.828;2022-12-18T07:16:08;16.50;;;5.85;;
72406;SDS011;60396;47.550;18.828;2022-12-18T07:18:47;20.83;;;5.62;;
72406;SDS011;60396;47.550;18.828;2022-12-18T07:21:16;17.23;;;5.50;;
72406;SDS011;60396;47.550;18.828;2022-12-18T07:23:46;23.40;;;7.18;;
72406;SDS011;60396;47.550;18.828;2022-12-18T07:26:16;21.93;;;7.07;;
72406;SDS011;60396;47.550;18.828;2022-12-18T07:28:45;20.67;;;6.75;;
72406;SDS011;60396;47.550;18.828;2022-12-18T07:31:17;25.20;;;6.72;;
72406;SDS011;60396;47.550;18.828;2022-12-18T07:33:48;23.85;;;7.15;;
72406;SDS011;60396;47.550;18.828;2022-12-18T07:36:16;22.00;;;7.30;;
72406;SDS011;60396;47.550;18.828;2022-12-18T07:38:46;19.20;;;6.10;;
72406;SDS011;60396;47.550;18.828;2022-12-18T07:41:14;19.95;;;6.68;;
72406;SDS011;60396;47.550;18.828;2022-12-18T07:43:42;21.25;;;7.12;;
72406;SDS011;60396;47.550;18.828;2022-12-18T07:46:11;23.77;;;7.57;;
72406;SDS011;60396;47.550;18.828;2022-12-18T07:48:41;20.85;;;6.78;;
72406;SDS011;60396;47.550;18.828;2022-12-18T07:51:16;19.00;;;5.43;;
72406;SDS011;60396;47.550;18.828;2022-12-18T07:53:45;20.27;;;6.68;;
72406;SDS011;60396;47.550;18.828;2022-12-18T07:56:18;26.37;;;7.93;;
72406;SDS011;60396;47.550;18.828;2022-12-18T07:58:56;18.42;;;6.40;;
72406;SDS011;60396;47.550;18.828;2022-12-18T08:01:24;20.10;;;6.55;;
72406;SDS011;60396;47.550;18.828;2022-12-18T08:03:52;23.30;;;8.37;;
72406;SDS011;60396;47.550;18.828;2022-12-18T08:06:20;22.15;;;7.20;;
72406;SDS011;60396;47.550;18.828;2022-12-18T08:08:51;22.75;;;7.70;;
72406;SDS011;60396;47.550;18.828;2022-12-18T08:11:19;21.95;;;8.50;;
72406;SDS011;60396;47.550;18.828;2022-12-18T08:13:47;30.05;;;10.10;;
72406;SDS011;60396;47.550;18.828;2022-12-18T08:16:16;24.73;;;9.40;;
72406;SDS011;60396;47.550;18.828;2022-12-18T08:18:44;33.22;;;11.23;;
72406;SDS011;60396;47.550;18.828;2022-12-18T08:23:43;35.92;;;12.40;;
72406;SDS011;60396;47.550;18.828;2022-12-18T08:26:12;35.13;;;12.37;;
72406;SDS011;60396;47.550;18.828;2022-12-18T08:28:40;36.97;;;13.43;;
72406;SDS011;60396;47.550;18.828;2022-12-18T08:31:16;34.70;;;11.52;;
72406;SDS011;60396;47.550;18.828;2022-12-18T08:33:45;35.72;;;13.43;;
72406;SDS011;60396;47.550;18.828;2022-12-18T08:36:16;39.45;;;13.35;;
72406;SDS011;60396;47.550;18.828;2022-12-18T08:38:44;36.55;;;12.37;;
72406;SDS011;60396;47.550;18.828;2022-12-18T08:41:13;33.83;;;12.93;;
72406;SDS011;60396;47.550;18.828;2022-12-18T08:43:42;39.33;;;13.55;;
72406;SDS011;60396;47.550;18.828;2022-12-18T08:46:33;38.47;;;12.65;;
72406;SDS011;60396;47.550;18.828;2022-12-18T08:49:03;38.13;;;12.75;;
72406;SDS011;60396;47.550;18.828;2022-12-18T08:51:31;34.08;;;12.07;;
72406;SDS011;60396;47.550;18.828;2022-12-18T08:53:59;36.00;;;13.10;;
72406;SDS011;60396;47.550;18.828;2022-12-18T08:56:27;32.00;;;12.05;;
72406;SDS011;60396;47.550;18.828;2022-12-18T08:58:55;36.08;;;13.85;;
72406;SDS011;60396;47.550;18.828;2022-12-18T09:01:24;42.33;;;13.75;;
72406;SDS011;60396;47.550;18.828;2022-12-18T09:03:51;35.25;;;13.23;;
72406;SDS011;60396;47.550;18.828;2022-12-18T09:06:20;36.77;;;14.43;;
72406;SDS011;60396;47.550;18.828;2022-12-18T09:08:48;36.65;;;14.75;;
72406;SDS011;60396;47.550;18.828;2022-12-18T09:11:20;40.17;;;15.27;;
72406;SDS011;60396;47.550;18.828;2022-12-18T09:13:50;39.95;;;14.75;;
72406;SDS011;60396;47.550;18.828;2022-12-18T09:16:18;42.03;;;15.35;;
72406;SDS011;60396;47.550;18.828;2022-12-18T09:18:47;39.80;;;15.23;;
72406;SDS011;60396;47.550;18.828;2022-12-18T09:21:16;41.33;;;16.23;;
72406;SDS011;60396;47.550;18.828;2022-12-18T09:23:51;39.88;;;15.07;;
72406;SDS011;60396;47.550;18.828;2022-12-18T09:26:22;38.70;;;15.93;;
72406;SDS011;60396;47.550;18.828;2022-12-18T09:28:51;42.67;;;16.27;;
72406;SDS011;60396;47.550;18.828;2022-12-18T09:31:19;39.37;;;15.83;;
72406;SDS011;60396;47.550;18.828;2022-12-18T09:33:48;44.67;;;14.82;;
72406;SDS011;60396;47.550;18.828;2022-12-18T09:36:16;43.65;;;15.73;;
72406;SDS011;60396;47.550;18.828;2022-12-18T09:38:45;42.97;;;16.90;;
72406;SDS011;60396;47.550;18.828;2022-12-18T09:44:18;38.63;;;15.70;;
72406;SDS011;60396;47.550;18.828;2022-12-18T09:49:29;40.40;;;15.82;;
72406;SDS011;60396;47.550;18.828;2022-12-18T09:52:00;40.85;;;15.88;;
72406;SDS011;60396;47.550;18.828;2022-12-18T09:54:33;35.28;;;14.50;;
72406;SDS011;60396;47.550;18.828;2022-12-18T09:57:21;38.63;;;15.50;;
72406;SDS011;60396;47.550;18.828;2022-12-18T09:59:58;39.55;;;15.32;;
72406;SDS011;60396;47.550;18.828;2022-12-18T10:02:37;38.28;;;15.82;;
72406;SDS011;60396;47.550;18.828;2022-12-18T10:05:06;40.63;;;15.60;;
72406;SDS011;60396;47.550;18.828;2022-12-18T10:07:53;37.72;;;16.15;;
72406;SDS011;60396;47.550;18.828;2022-12-18T10:13:31;42.90;;;17.05;;
72406;SDS011;60396;47.550;18.828;2022-12-18T10:16:19;38.10;;;15.07;;
72406;SDS011;60396;47.550;18.828;2022-12-18T10:21:59;35.28;;;14.85;;
72406;SDS011;60396;47.550;18.828;2022-12-18T10:24:45;35.90;;;13.70;;
72406;SDS011;60396;47.550;18.828;2022-12-18T10:27:31;39.70;;;15.77;;
72406;SDS011;60396;47.550;18.828;2022-12-18T10:29:59;36.15;;;13.05;;
72406;SDS011;60396;47.550;18.828;2022-12-18T10:32:29;26.77;;;10.18;;
72406;SDS011;60396;47.550;18.828;2022-12-18T10:34:57;32.50;;;12.40;;
72406;SDS011;60396;47.550;18.828;2022-12-18T10:37:28;29.63;;;11.43;;
72406;SDS011;60396;47.550;18.828;2022-12-18T10:42:46;27.27;;;11.20;;
72406;SDS011;60396;47.550;18.828;2022-12-18T10:45:15;29.87;;;12.68;;
72406;SDS011;60396;47.550;18.828;2022-12-18T10:47:44;40.10;;;15.05;;
72406;SDS011;60396;47.550;18.828;2022-12-18T10:50:34;34.93;;;14.43;;
72406;SDS011;60396;47.550;18.828;2022-12-18T10:53:25;37.63;;;15.25;;
72406;SDS011;60396;47.550;18.828;2022-12-18T10:55:55;36.28;;;15.10;;
72406;SDS011;60396;47.550;18.828;2022-12-18T10:58:26;38.78;;;15.32;;
72406;SDS011;60396;47.550;18.828;2022-12-18T11:03:40;39.17;;;15.00;;
72406;SDS011;60396;47.550;18.828;2022-12-18T11:06:11;34.67;;;14.70;;
72406;SDS011;60396;47.550;18.828;2022-12-18T11:09:04;38.45;;;15.82;;
72406;SDS011;60396;47.550;18.828;2022-12-18T11:11:41;40.83;;;15.85;;
72406;SDS011;60396;47.550;18.828;2022-12-18T11:14:18;36.33;;;14.10;;
72406;SDS011;60396;47.550;18.828;2022-12-18T11:17:01;42.00;;;15.73;;
72406;SDS011;60396;47.550;18.828;2022-12-18T11:19:52;40.17;;;14.55;;
72406;SDS011;60396;47.550;18.828;2022-12-18T11:22:28;34.97;;;14.52;;
72406;SDS011;60396;47.550;18.828;2022-12-18T11:28:00;40.47;;;16.00;;
72406;SDS011;60396;47.550;18.828;2022-12-18T11:30:33;30.63;;;14.40;;
72406;SDS011;60396;47.550;18.828;2022-12-18T11:33:07;35.97;;;15.15;;
72406;SDS011;60396;47.550;18.828;2022-12-18T11:35:45;36.75;;;13.93;;
72406;SDS011;60396;47.550;18.828;2022-12-18T11:43:31;38.30;;;12.83;;
72406;SDS011;60396;47.550;18.828;2022-12-18T11:46:05;30.25;;;12.43;;
72406;SDS011;60396;47.550;18.828;2022-12-18T11:51:31;38.03;;;13.50;;
72406;SDS011;60396;47.550;18.828;2022-12-18T11:54:01;35.30;;;13.68;;
72406;SDS011;60396;47.550;18.828;2022-12-18T12:01:54;32.03;;;13.32;;
72406;SDS011;60396;47.550;18.828;2022-12-18T12:10:07;29.93;;;13.07;;
72406;SDS011;60396;47.550;18.828;2022-12-18T12:12:52;32.42;;;13.40;;
72406;SDS011;60396;47.550;18.828;2022-12-18T12:35:25;32.88;;;14.65;;
72406;SDS011;60396;47.550;18.828;2022-12-18T12:40:54;52.42;;;20.70;;
72406;SDS011;60396;47.550;18.828;2022-12-18T12:43:43;37.75;;;17.87;;
72406;SDS011;60396;47.550;18.828;2022-12-18T12:46:17;41.30;;;16.50;;
72406;SDS011;60396;47.550;18.828;2022-12-18T12:49:04;57.62;;;21.25;;
72406;SDS011;60396;47.550;18.828;2022-12-18T12:51:39;42.30;;;17.10;;
72406;SDS011;60396;47.550;18.828;2022-12-18T12:54:17;41.40;;;18.35;;
72406;SDS011;60396;47.550;18.828;2022-12-18T12:56:53;38.95;;;16.17;;
72406;SDS011;60396;47.550;18.828;2022-12-18T13:00:10;42.13;;;17.83;;
72406;SDS011;60396;47.550;18.828;2022-12-18T13:07:54;38.45;;;15.25;;
72406;SDS011;60396;47.550;18.828;2022-12-18T13:10:30;35.80;;;14.77;;
72406;SDS011;60396;47.550;18.828;2022-12-18T13:15:38;37.83;;;15.82;;
72406;SDS011;60396;47.550;18.828;2022-12-18T13:25:51;36.78;;;16.80;;
72406;SDS011;60396;47.550;18.828;2022-12-18T13:31:01;39.77;;;16.33;;
72406;SDS011;60396;47.550;18.828;2022-12-18T13:38:43;37.90;;;16.98;;
72406;SDS011;60396;47.550;18.828;2022-12-18T13:43:46;37.33;;;16.17;;
72406;SDS011;60396;47.550;18.828;2022-12-18T13:46:21;43.25;;;18.08;;
72406;SDS011;60396;47.550;18.828;2022-12-18T13:49:35;38.42;;;17.23;;
72406;SDS011;60396;47.550;18.828;2022-12-18T13:52:03;41.60;;;16.55;;
72406;SDS011;60396;47.550;18.828;2022-12-18T13:54:45;38.72;;;15.98;;
72406;SDS011;60396;47.550;18.828;2022-12-18T13:57:27;44.20;;;18.13;;
72406;SDS011;60396;47.550;18.828;2022-12-18T14:03:00;36.20;;;15.63;;
72406;SDS011;60396;47.550;18.828;2022-12-18T14:05:32;39.70;;;16.65;;
72406;SDS011;60396;47.550;18.828;2022-12-18T14:08:06;40.10;;;15.55;;
72406;SDS011;60396;47.550;18.828;2022-12-18T14:10:39;38.23;;;16.47;;
72406;SDS011;60396;47.550;18.828;2022-12-18T14:13:21;37.00;;;14.87;;
72406;SDS011;60396;47.550;18.828;2022-12-18T14:15:52;40.88;;;16.15;;
72406;SDS011;60396;47.550;18.828;2022-12-18T14:18:31;41.90;;;18.23;;
72406;SDS011;60396;47.550;18.828;2022-12-18T14:21:14;43.50;;;18.52;;
72406;SDS011;60396;47.550;18.828;2022-12-18T14:23:45;39.97;;;18.53;;
72406;SDS011;60396;47.550;18.828;2022-12-18T14:26:20;46.08;;;18.92;;
72406;SDS011;60396;47.550;18.828;2022-12-18T14:28:49;41.47;;;17.73;;
72406;SDS011;60396;47.550;18.828;2022-12-18T14:31:24;42.35;;;18.55;;
72406;SDS011;60396;47.550;18.828;2022-12-18T14:33:53;40.75;;;17.92;;
72406;SDS011;60396;47.550;18.828;2022-12-18T14:36:22;39.40;;;17.50;;
72406;SDS011;60396;47.550;18.828;2022-12-18T14:38:52;42.67;;;17.25;;
72406;SDS011;60396;47.550;18.828;2022-12-18T14:41:24;33.08;;;14.48;;
72406;SDS011;60396;47.550;18.828;2022-12-18T14:43:52;38.20;;;17.48;;
72406;SDS011;60396;47.550;18.828;2022-12-18T14:48:55;40.53;;;16.73;;
72406;SDS011;60396;47.550;18.828;2022-12-18T14:51:24;32.83;;;15.90;;
72406;SDS011;60396;47.550;18.828;2022-12-18T14:53:54;33.55;;;15.13;;
72406;SDS011;60396;47.550;18.828;2022-12-18T14:56:28;43.53;;;18.20;;
72406;SDS011;60396;47.550;18.828;2022-12-18T15:01:46;32.50;;;14.47;;
72406;SDS011;60396;47.550;18.828;2022-12-18T15:04:34;35.45;;;15.80;;
72406;SDS011;60396;47.550;18.828;2022-12-18T15:09:41;35.55;;;15.90;;
72406;SDS011;60396;47.550;18.828;2022-12-18T15:12:19;40.10;;;15.23;;
72406;SDS011;60396;47.550;18.828;2022-12-18T15:15:04;38.00;;;15.77;;
72406;SDS011;60396;47.550;18.828;2022-12-18T15:17:32;34.60;;;14.80;;
72406;SDS011;60396;47.550;18.828;2022-12-18T15:20:00;34.90;;;14.87;;
72406;SDS011;60396;47.550;18.828;2022-12-18T15:22:30;41.53;;;15.93;;
72406;SDS011;60396;47.550;18.828;2022-12-18T15:25:02;38.30;;;15.18;;
72406;SDS011;60396;47.550;18.828;2022-12-18T15:27:32;38.70;;;15.80;;
72406;SDS011;60396;47.550;18.828;2022-12-18T15:32:36;35.58;;;15.02;;
72406;SDS011;60396;47.550;18.828;2022-12-18T15:35:11;29.60;;;12.50;;
72406;SDS011;60396;47.550;18.828;2022-12-18T15:37:42;29.73;;;12.43;;
72406;SDS011;60396;47.550;18.828;2022-12-18T15:40:13;30.30;;;12.07;;
72406;SDS011;60396;47.550;18.828;2022-12-18T15:42:43;27.48;;;11.40;;
72406;SDS011;60396;47.550;18.828;2022-12-18T15:45:30;28.83;;;11.95;;
72406;SDS011;60396;47.550;18.828;2022-12-18T15:47:58;28.52;;;11.80;;
72406;SDS011;60396;47.550;18.828;2022-12-18T15:50:26;30.75;;;12.60;;
72406;SDS011;60396;47.550;18.828;2022-12-18T15:52:55;30.20;;;12.50;;
72406;SDS011;60396;47.550;18.828;2022-12-18T15:55:23;35.55;;;14.23;;
72406;SDS011;60396;47.550;18.828;2022-12-18T15:58:10;31.15;;;11.48;;
72406;SDS011;60396;47.550;18.828;2022-12-18T16:00:40;30.65;;;12.15;;
72406;SDS011;60396;47.550;18.828;2022-12-18T16:03:08;32.03;;;11.82;;
72406;SDS011;60396;47.550;18.828;2022-12-18T16:05:37;30.13;;;11.90;;
72406;SDS011;60396;47.550;18.828;2022-12-18T16:08:04;28.65;;;11.93;;
72406;SDS011;60396;47.550;18.828;2022-12-18T16:10:32;28.25;;;11.38;;
72406;SDS011;60396;47.550;18.828;2022-12-18T16:13:00;27.73;;;10.48;;
72406;SDS011;60396;47.550;18.828;2022-12-18T16:15:27;26.02;;;11.43;;
72406;SDS011;60396;47.550;18.828;2022-12-18T16:17:55;30.80;;;10.97;;
72406;SDS011;60396;47.550;18.828;2022-12-18T16:20:22;24.40;;;10.23;;
72406;SDS011;60396;47.550;18.828;2022-12-18T16:22:50;30.65;;;9.98;;
72406;SDS011;60396;47.550;18.828;2022-12-18T16:25:27;29.58;;;10.63;;
72406;SDS011;60396;47.550;18.828;2022-12-18T16:27:55;29.75;;;10.55;;
72406;SDS011;60396;47.550;18.828;2022-12-18T16:30:27;29.40;;;10.73;;
72406;SDS011;60396;47.550;18.828;2022-12-18T16:33:04;30.17;;;11.23;;
72406;SDS011;60396;47.550;18.828;2022-12-18T16:35:34;29.08;;;10.98;;
72406;SDS011;60396;47.550;18.828;2022-12-18T16:38:04;30.15;;;10.88;;
72406;SDS011;60396;47.550;18.828;2022-12-18T16:40:31;33.65;;;12.50;;
72406;SDS011;60396;47.550;18.828;2022-12-18T16:43:00;28.07;;;10.93;;
72406;SDS011;60396;47.550;18.828;2022-12-18T16:45:27;29.33;;;11.15;;
72406;SDS011;60396;47.550;18.828;2022-12-18T16:48:00;30.95;;;10.85;;
72406;SDS011;60396;47.550;18.828;2022-12-18T16:50:27;29.48;;;12.02;;
72406;SDS011;60396;47.550;18.828;2022-12-18T16:52:55;29.70;;;12.10;;
72406;SDS011;60396;47.550;18.828;2022-12-18T16:55:23;31.77;;;12.77;;
72406;SDS011;60396;47.550;18.828;2022-12-18T16:57:51;31.30;;;12.23;;
72406;SDS011;60396;47.550;18.828;2022-12-18T17:00:18;36.30;;;13.43;;